Time;durP1;ratioP1;P1;durP2;ratioP2;P2;SDS_P1;SDS_P2;PMS_P1;PMS_P2;Temp;Humidity;BMP_temperature;BMP_pressure;BME280_temperature;BME280_humidity;BME280_pressure;Samples;Min_cycle;Max_cycle;Signal;HPM_P1;HPM_P2
2023/05/08 00:00:15;;;;;;;8.73;7.93;;;14.30;99.90;;;;;;5032066;28;20456;-70
2023/05/08 00:02:43;;;;;;;8.33;7.57;;;14.30;99.90;;;;;;5031882;28;20454;-68
2023/05/08 00:05:11;;;;;;;8.83;7.80;;;14.30;99.90;;;;;;5030978;28;20472;-68
2023/05/08 00:07:39;;;;;;;8.57;7.77;;;14.30;99.90;;;;;;5031472;28;20465;-69
2023/05/08 00:10:08;;;;;;;8.83;8.13;;;14.20;99.90;;;;;;5031303;28;20930;-70
2023/05/08 00:12:37;;;;;;;8.97;8.20;;;14.30;99.90;;;;;;5031230;28;20441;-69
2023/05/08 00:15:07;;;;;;;7.97;7.17;;;14.30;99.90;;;;;;5031071;28;21053;-69
2023/05/08 00:17:35;;;;;;;9.00;7.77;;;14.30;99.90;;;;;;5030783;28;20517;-69
2023/05/08 00:20:04;;;;;;;7.93;7.23;;;14.30;99.90;;;;;;5030787;28;20449;-69
2023/05/08 00:22:32;;;;;;;8.20;7.50;;;14.30;99.90;;;;;;5031054;28;20443;-68
2023/05/08 00:25:00;;;;;;;7.73;7.03;;;14.20;99.90;;;;;;5031105;28;20901;-69
2023/05/08 00:27:28;;;;;;;8.03;7.30;;;14.30;99.90;;;;;;5031286;28;20442;-69
2023/05/08 00:29:56;;;;;;;8.67;7.87;;;14.30;99.90;;;;;;5031057;28;20441;-69
2023/05/08 00:32:25;;;;;;;8.43;7.63;;;14.20;99.90;;;;;;5030547;28;20445;-70
2023/05/08 00:34:54;;;;;;;9.00;8.00;;;14.20;99.90;;;;;;5030695;28;21032;-69
2023/05/08 00:37:21;;;;;;;8.27;7.47;;;14.20;99.90;;;;;;5030735;28;20485;-69
2023/05/08 00:39:49;;;;;;;8.90;7.80;;;14.20;99.90;;;;;;5031117;28;20519;-68
2023/05/08 00:42:17;;;;;;;9.17;8.07;;;14.20;99.90;;;;;;5030762;28;20537;-69
2023/05/08 00:44:45;;;;;;;9.50;8.70;;;14.20;99.90;;;;;;5030503;28;20562;-69
2023/05/08 00:47:14;;;;;;;9.10;8.30;;;14.10;99.90;;;;;;5031163;28;20536;-69
2023/05/08 00:49:43;;;;;;;8.27;7.47;;;14.10;99.90;;;;;;5030779;28;20891;-70
2023/05/08 00:52:12;;;;;;;8.73;7.90;;;14.20;99.90;;;;;;5030846;28;20439;-70
2023/05/08 00:54:40;;;;;;;9.67;8.87;;;14.20;99.90;;;;;;5029871;28;20475;-70
2023/05/08 00:57:08;;;;;;;9.20;8.50;;;14.30;99.90;;;;;;5030525;28;20519;-70
2023/05/08 00:59:37;;;;;;;9.13;8.33;;;14.30;99.90;;;;;;5030452;28;20439;-69
2023/05/08 01:02:05;;;;;;;9.90;9.03;;;14.30;99.90;;;;;;5030792;28;20821;-69
2023/05/08 01:04:34;;;;;;;9.53;8.73;;;14.20;99.90;;;;;;5030304;28;20461;-69
2023/05/08 01:07:04;;;;;;;10.57;9.67;;;14.20;99.90;;;;;;5030485;28;20437;-69
2023/05/08 01:09:32;;;;;;;10.03;9.17;;;14.20;99.90;;;;;;5030909;28;20497;-68
2023/05/08 01:12:08;;;;;;;10.57;9.60;;;14.20;99.90;;;;;;5030297;28;20535;-70
2023/05/08 01:14:46;;;;;;;10.37;9.40;;;14.20;99.90;;;;;;5030266;28;20460;-69
2023/05/08 01:17:20;;;;;;;11.63;10.60;;;14.20;99.90;;;;;;5030347;28;20502;-69
2023/05/08 01:20:03;;;;;;;11.00;10.00;;;14.30;99.90;;;;;;5030411;28;20960;-70
2023/05/08 01:22:53;;;;;;;12.00;10.90;;;14.20;99.90;;;;;;5029893;28;20523;-68
2023/05/08 01:25:46;;;;;;;11.00;10.10;;;14.10;99.90;;;;;;5029908;28;20495;-69
2023/05/08 01:28:46;;;;;;;10.50;9.50;;;14.00;99.90;;;;;;5030008;28;20806;-69
2023/05/08 01:31:24;;;;;;;11.40;10.40;;;14.00;99.90;;;;;;5030538;28;20540;-69
2023/05/08 01:34:03;;;;;;;9.90;8.90;;;14.10;99.90;;;;;;5029707;28;20487;-68
2023/05/08 01:36:39;;;;;;;10.00;9.00;;;14.30;99.90;;;;;;5029770;28;20498;-69
2023/05/08 01:39:17;;;;;;;9.83;9.03;;;14.20;99.90;;;;;;5029848;28;20448;-69
2023/05/08 01:41:53;;;;;;;12.67;10.33;;;14.20;99.90;;;;;;5029924;28;20473;-69
2023/05/08 01:44:28;;;;;;;11.20;9.67;;;14.10;99.90;;;;;;5029709;28;20491;-69
2023/05/08 01:46:56;;;;;;;10.53;9.70;;;14.00;99.90;;;;;;5029499;28;20527;-69
2023/05/08 01:49:28;;;;;;;8.50;7.80;;;14.10;99.90;;;;;;5029750;28;20489;-69
2023/05/08 01:52:00;;;;;;;9.17;8.33;;;14.10;99.90;;;;;;5029708;28;20485;-69
2023/05/08 01:54:33;;;;;;;10.50;9.47;;;14.10;99.90;;;;;;5029072;28;20459;-68
2023/05/08 01:57:03;;;;;;;10.40;9.30;;;14.10;99.90;;;;;;5029440;28;20508;-69
2023/05/08 01:59:33;;;;;;;10.47;9.57;;;14.10;99.90;;;;;;5029974;28;20442;-69
2023/05/08 02:02:02;;;;;;;10.63;9.57;;;14.10;99.90;;;;;;5029330;28;20457;-69
2023/05/08 02:04:33;;;;;;;12.80;11.20;;;14.10;99.90;;;;;;5028807;28;21052;-69
2023/05/08 02:07:02;;;;;;;11.60;10.50;;;14.00;99.90;;;;;;5029741;28;20450;-69
2023/05/08 02:09:31;;;;;;;12.23;11.13;;;14.00;99.90;;;;;;5029415;28;20509;-69
2023/05/08 02:12:01;;;;;;;11.80;10.70;;;14.00;99.90;;;;;;5029676;28;20472;-70
2023/05/08 02:14:31;;;;;;;16.77;11.20;;;14.00;99.90;;;;;;5028865;28;20536;-70
2023/05/08 02:17:02;;;;;;;12.87;11.77;;;14.00;99.90;;;;;;5029621;28;20477;-71
2023/05/08 02:19:33;;;;;;;15.30;13.77;;;14.10;99.90;;;;;;5029224;28;20450;-69
2023/05/08 02:22:02;;;;;;;13.73;12.43;;;14.00;99.90;;;;;;5030409;28;21037;-70
2023/05/08 02:24:32;;;;;;;14.60;13.30;;;14.10;99.90;;;;;;5031025;28;20444;-70
2023/05/08 02:27:01;;;;;;;14.47;13.20;;;14.00;99.90;;;;;;5029774;28;20799;-70
2023/05/08 02:29:29;;;;;;;13.87;12.60;;;14.00;99.90;;;;;;5030232;28;20444;-70
2023/05/08 02:32:00;;;;;;;13.57;12.27;;;14.00;99.90;;;;;;5030674;28;20505;-69
2023/05/08 02:34:30;;;;;;;13.90;12.70;;;14.00;99.90;;;;;;5029027;28;20445;-69
2023/05/08 02:37:01;;;;;;;15.00;13.30;;;14.10;99.90;;;;;;5028883;28;20572;-69
2023/05/08 02:39:31;;;;;;;14.67;13.20;;;14.10;99.90;;;;;;5029332;28;20428;-69
2023/05/08 02:41:59;;;;;;;13.00;11.70;;;14.10;99.90;;;;;;5031317;28;20869;-70
2023/05/08 02:44:28;;;;;;;13.87;12.57;;;14.10;99.90;;;;;;5032977;28;20479;-70
2023/05/08 02:47:00;;;;;;;14.10;12.80;;;14.10;99.90;;;;;;5033105;28;20436;-70
2023/05/08 02:49:32;;;;;;;13.70;12.47;;;14.10;99.90;;;;;;5033032;28;20997;-69
2023/05/08 02:52:10;;;;;;;14.60;13.30;;;14.10;99.90;;;;;;5033379;28;20445;-69
2023/05/08 02:54:43;;;;;;;15.90;14.23;;;14.10;99.90;;;;;;5032337;28;20567;-69
2023/05/08 02:57:21;;;;;;;14.93;13.00;;;14.10;99.90;;;;;;5032930;28;20907;-69
2023/05/08 02:59:57;;;;;;;15.73;14.20;;;14.00;99.90;;;;;;5033123;28;20436;-69
2023/05/08 03:02:33;;;;;;;15.17;13.77;;;14.00;99.90;;;;;;5032424;28;20436;-69
2023/05/08 03:05:06;;;;;;;15.73;14.23;;;14.00;99.90;;;;;;5032265;28;20452;-69
2023/05/08 03:07:40;;;;;;;15.03;13.67;;;14.00;99.90;;;;;;5032979;28;20467;-69
2023/05/08 03:10:14;;;;;;;15.30;13.90;;;14.00;99.90;;;;;;5032622;28;20558;-69
2023/05/08 03:12:46;;;;;;;14.40;12.97;;;14.10;99.90;;;;;;5032584;28;20490;-69
2023/05/08 03:15:19;;;;;;;15.40;13.90;;;14.10;99.90;;;;;;5032447;28;20526;-70
2023/05/08 03:17:48;;;;;;;16.87;15.33;;;14.00;99.90;;;;;;5032695;28;20476;-69
2023/05/08 03:20:19;;;;;;;15.37;13.77;;;14.00;99.90;;;;;;5032642;28;20444;-70
2023/05/08 03:22:50;;;;;;;14.80;13.50;;;14.00;99.90;;;;;;5012332;28;20556;-69
2023/05/08 03:25:20;;;;;;;15.17;13.47;;;14.10;99.90;;;;;;5012548;28;20460;-70
2023/05/08 03:27:49;;;;;;;17.10;15.50;;;14.00;99.90;;;;;;5012562;28;20440;-70
2023/05/08 03:30:17;;;;;;;14.93;13.63;;;14.00;99.90;;;;;;5012892;28;20485;-70
2023/05/08 03:32:47;;;;;;;16.70;15.33;;;14.00;99.90;;;;;;5012432;28;20446;-70
2023/05/08 03:35:16;;;;;;;17.77;16.27;;;14.00;99.90;;;;;;5012227;28;20545;-70
2023/05/08 03:37:44;;;;;;;18.13;16.53;;;14.00;99.90;;;;;;5012769;28;20573;-70
2023/05/08 03:40:14;;;;;;;16.70;15.17;;;14.00;99.90;;;;;;5012274;28;20438;-70
2023/05/08 03:42:44;;;;;;;15.83;14.37;;;14.00;99.90;;;;;;5011920;28;20446;-70
2023/05/08 03:45:15;;;;;;;15.43;14.03;;;14.00;99.90;;;;;;5012040;28;20490;-70
2023/05/08 03:47:44;;;;;;;16.73;15.03;;;14.00;99.90;;;;;;5012533;28;20441;-70
2023/05/08 03:50:12;;;;;;;15.90;14.27;;;14.00;99.90;;;;;;5011865;28;20779;-70
2023/05/08 03:52:41;;;;;;;14.73;13.43;;;14.00;99.90;;;;;;5011659;28;20818;-70
2023/05/08 03:55:10;;;;;;;15.30;13.90;;;14.00;99.90;;;;;;5011687;28;20885;-70
2023/05/08 03:57:45;;;;;;;14.30;12.97;;;14.10;99.90;;;;;;5012260;28;20955;-71
2023/05/08 04:00:19;;;;;;;15.40;14.10;;;14.10;99.90;;;;;;5011838;28;20480;-70
2023/05/08 04:02:53;;;;;;;13.63;12.43;;;14.10;99.90;;;;;;5011614;28;20438;-71
2023/05/08 04:05:31;;;;;;;12.10;11.13;;;14.20;99.90;;;;;;5011950;28;20457;-70
2023/05/08 04:08:09;;;;;;;12.07;11.07;;;14.10;99.90;;;;;;5012475;28;20534;-70
2023/05/08 04:10:42;;;;;;;13.70;12.37;;;14.20;99.90;;;;;;5011551;28;20541;-70
2023/05/08 04:13:14;;;;;;;13.03;11.97;;;14.10;99.90;;;;;;5011244;28;20998;-70
2023/05/08 04:15:48;;;;;;;14.17;12.87;;;14.20;99.90;;;;;;5011491;28;20458;-70
2023/05/08 04:18:18;;;;;;;15.17;13.80;;;14.20;99.90;;;;;;5011884;28;20479;-70
2023/05/08 04:20:48;;;;;;;14.70;13.50;;;14.10;99.90;;;;;;5011964;28;20445;-70
2023/05/08 04:23:19;;;;;;;14.70;13.30;;;14.10;99.90;;;;;;5011753;28;20448;-71
2023/05/08 04:25:49;;;;;;;16.67;15.00;;;14.10;99.90;;;;;;5011293;28;20462;-71
2023/05/08 04:28:19;;;;;;;15.00;13.73;;;14.10;99.90;;;;;;5011497;28;20540;-70
2023/05/08 04:30:47;;;;;;;13.70;12.60;;;14.20;99.90;;;;;;5011302;28;20938;-70
2023/05/08 04:33:17;;;;;;;15.77;14.37;;;14.20;99.90;;;;;;5011340;28;20447;-69
2023/05/08 04:35:46;;;;;;;17.97;16.27;;;14.20;99.90;;;;;;5011185;28;20468;-69
2023/05/08 04:38:14;;;;;;;15.63;14.07;;;14.20;99.90;;;;;;5011052;28;20483;-69
2023/05/08 04:40:41;;;;;;;16.87;15.43;;;14.20;99.90;;;;;;5014118;28;20451;-68
2023/05/08 04:43:10;;;;;;;16.60;15.10;;;14.20;99.90;;;;;;5031005;28;20447;-70
2023/05/08 04:45:39;;;;;;;16.67;15.07;;;14.30;99.90;;;;;;5033793;28;20469;-69
2023/05/08 04:48:07;;;;;;;16.77;15.17;;;14.30;99.90;;;;;;5035224;28;20466;-71
2023/05/08 04:50:35;;;;;;;16.70;15.30;;;14.30;99.90;;;;;;5032057;28;20444;-69
2023/05/08 04:53:03;;;;;;;16.70;14.23;;;14.30;99.90;;;;;;5030701;28;20454;-69
2023/05/08 04:55:31;;;;;;;15.07;13.77;;;14.30;99.90;;;;;;5030396;28;20473;-69
2023/05/08 04:57:59;;;;;;;13.87;12.67;;;14.40;99.90;;;;;;5030783;28;20442;-69
2023/05/08 05:00:27;;;;;;;15.40;14.10;;;14.40;99.90;;;;;;5031022;28;20543;-69
2023/05/08 05:02:56;;;;;;;16.83;15.33;;;14.40;99.90;;;;;;5030318;28;20557;-69
2023/05/08 05:05:24;;;;;;;14.97;13.67;;;14.30;99.90;;;;;;5030235;28;20472;-70
2023/05/08 05:07:52;;;;;;;15.13;13.93;;;14.30;99.90;;;;;;5030642;28;20485;-69
2023/05/08 05:10:20;;;;;;;15.13;13.80;;;14.30;99.90;;;;;;5030858;28;20479;-69
2023/05/08 05:12:48;;;;;;;14.17;12.87;;;14.30;99.90;;;;;;5030123;28;20461;-70
2023/05/08 05:15:16;;;;;;;13.83;12.70;;;14.40;99.90;;;;;;5030579;28;20466;-70
2023/05/08 05:17:44;;;;;;;14.07;12.90;;;14.40;99.90;;;;;;5030114;28;20523;-70
2023/05/08 05:20:14;;;;;;;14.27;12.60;;;14.40;99.90;;;;;;5030368;28;20487;-70
2023/05/08 05:22:42;;;;;;;13.50;12.20;;;14.50;99.90;;;;;;5030101;28;20971;-70
2023/05/08 05:25:11;;;;;;;13.50;12.37;;;14.50;99.90;;;;;;5030228;28;20499;-69
2023/05/08 05:27:39;;;;;;;14.30;13.00;;;14.50;99.90;;;;;;5030359;28;20808;-70
2023/05/08 05:30:08;;;;;;;15.10;13.80;;;14.50;99.90;;;;;;5030142;28;20493;-69
2023/05/08 05:32:36;;;;;;;15.17;13.80;;;14.50;99.90;;;;;;5029757;28;20930;-70
2023/05/08 05:35:05;;;;;;;16.43;14.17;;;14.50;99.90;;;;;;5029872;28;20461;-71
2023/05/08 05:37:34;;;;;;;15.17;13.87;;;14.40;99.90;;;;;;5030089;28;20455;-71
2023/05/08 05:40:02;;;;;;;15.13;13.73;;;14.40;99.90;;;;;;5029851;28;20513;-71
2023/05/08 05:42:30;;;;;;;15.47;14.00;;;14.40;99.90;;;;;;5029920;28;20529;-70
2023/05/08 05:45:00;;;;;;;15.03;13.50;;;14.40;99.90;;;;;;5029765;28;20472;-71
2023/05/08 05:47:28;;;;;;;15.53;14.10;;;14.40;99.90;;;;;;5029778;28;20453;-70
2023/05/08 05:49:57;;;;;;;16.93;15.33;;;14.40;99.90;;;;;;5028190;28;20448;-70
2023/05/08 05:52:25;;;;;;;15.30;13.93;;;14.40;99.90;;;;;;5029922;28;20515;-70
2023/05/08 05:54:55;;;;;;;16.97;15.40;;;14.40;99.90;;;;;;5029869;28;20853;-70
2023/05/08 05:57:22;;;;;;;15.17;13.77;;;14.50;99.90;;;;;;5029584;28;20527;-69
2023/05/08 05:59:50;;;;;;;17.53;15.67;;;14.50;99.90;;;;;;5029332;28;21063;-69
2023/05/08 06:02:21;;;;;;;19.17;15.13;;;14.50;99.90;;;;;;5029863;28;20487;-70
2023/05/08 06:04:51;;;;;;;16.83;15.27;;;14.50;99.90;;;;;;5030084;28;20461;-70
2023/05/08 06:07:19;;;;;;;16.33;14.77;;;14.60;99.90;;;;;;5029791;28;20442;-71
2023/05/08 06:09:49;;;;;;;17.83;16.23;;;14.60;99.90;;;;;;5030004;28;20809;-70
2023/05/08 06:12:19;;;;;;;15.83;14.53;;;14.50;99.90;;;;;;5029865;28;20860;-70
2023/05/08 06:14:47;;;;;;;17.37;15.87;;;14.60;99.90;;;;;;5029584;28;20515;-71
2023/05/08 06:17:15;;;;;;;16.80;15.30;;;14.60;99.90;;;;;;5032118;28;20880;-70
2023/05/08 06:19:43;;;;;;;17.67;16.07;;;14.60;99.90;;;;;;5033989;28;20563;-71
2023/05/08 06:22:11;;;;;;;17.70;15.90;;;14.60;99.90;;;;;;5026589;28;20448;-70
2023/05/08 06:24:39;;;;;;;17.57;16.03;;;14.60;99.90;;;;;;5031497;28;20503;-70
2023/05/08 06:27:07;;;;;;;16.20;14.80;;;14.50;99.90;;;;;;5013123;28;20437;-70
2023/05/08 06:29:36;;;;;;;18.10;16.40;;;14.60;99.90;;;;;;5012794;28;20437;-70
2023/05/08 06:32:04;;;;;;;16.20;14.80;;;14.50;99.90;;;;;;5012717;28;20445;-70
2023/05/08 06:34:32;;;;;;;17.70;16.10;;;14.60;99.90;;;;;;5011844;28;20499;-69
2023/05/08 06:37:00;;;;;;;18.07;16.57;;;14.60;99.90;;;;;;5012755;28;20441;-70
2023/05/08 06:39:28;;;;;;;17.27;15.50;;;14.70;99.90;;;;;;5013657;28;20928;-71
2023/05/08 06:41:56;;;;;;;16.33;14.83;;;14.80;99.90;;;;;;5015270;28;20847;-71
2023/05/08 06:44:24;;;;;;;14.73;13.43;;;14.90;99.90;;;;;;5013815;28;20448;-70
2023/05/08 06:46:54;;;;;;;15.47;14.00;;;15.00;99.90;;;;;;5013687;28;20446;-70
2023/05/08 06:49:22;;;;;;;13.43;12.43;;;15.10;99.90;;;;;;5014296;28;20445;-70
2023/05/08 06:51:50;;;;;;;14.33;13.17;;;15.10;99.90;;;;;;5013595;28;20450;-70
2023/05/08 06:54:18;;;;;;;14.17;12.97;;;15.10;99.90;;;;;;5011102;28;20456;-70
2023/05/08 06:56:46;;;;;;;16.00;14.60;;;15.10;99.90;;;;;;5011549;28;20453;-71
2023/05/08 06:59:14;;;;;;;17.93;16.37;;;15.10;99.90;;;;;;5011803;28;20474;-71
2023/05/08 07:01:42;;;;;;;15.10;13.80;;;15.10;99.90;;;;;;5011152;28;20439;-71
2023/05/08 07:04:12;;;;;;;15.00;13.80;;;15.20;99.90;;;;;;5011685;28;20508;-70
2023/05/08 07:06:40;;;;;;;15.73;14.23;;;15.20;99.90;;;;;;5011083;28;20644;-70
2023/05/08 07:09:09;;;;;;;16.00;14.40;;;15.20;99.90;;;;;;5011633;28;20520;-70
2023/05/08 07:11:37;;;;;;;14.90;13.60;;;15.20;99.90;;;;;;5011644;28;20935;-70
2023/05/08 07:14:05;;;;;;;16.13;14.53;;;15.20;99.90;;;;;;5010967;28;20447;-70
2023/05/08 07:16:33;;;;;;;16.57;15.03;;;15.10;99.90;;;;;;5011440;28;20572;-70
2023/05/08 07:19:01;;;;;;;18.83;16.83;;;15.10;99.90;;;;;;5011032;28;20624;-69
2023/05/08 07:21:31;;;;;;;19.13;16.70;;;15.10;99.90;;;;;;5011167;28;20453;-70
2023/05/08 07:23:59;;;;;;;18.13;16.33;;;15.10;99.90;;;;;;5010518;28;20445;-70
2023/05/08 07:26:27;;;;;;;17.23;15.53;;;15.20;99.90;;;;;;5011010;28;20468;-70
2023/05/08 07:28:55;;;;;;;16.30;14.90;;;15.30;99.90;;;;;;5010453;28;20520;-70
2023/05/08 07:31:22;;;;;;;16.27;14.67;;;15.40;99.90;;;;;;5010691;28;20850;-70
2023/05/08 07:33:50;;;;;;;16.93;15.53;;;15.40;99.90;;;;;;5010585;28;20843;-69
2023/05/08 07:36:18;;;;;;;15.73;14.33;;;15.50;99.90;;;;;;5057164;23;20492;-71
2023/05/08 07:38:48;;;;;;;17.03;15.50;;;15.70;99.90;;;;;;5035022;28;20530;-72
2023/05/08 07:41:16;;;;;;;16.07;13.13;;;16.00;99.90;;;;;;5035884;28;20556;-68
2023/05/08 07:43:44;;;;;;;11.93;10.83;;;16.20;99.90;;;;;;5034481;28;20860;-69
2023/05/08 07:46:16;;;;;;;10.20;9.30;;;16.60;99.90;;;;;;5015439;28;20545;-69
2023/05/08 07:48:44;;;;;;;9.20;8.40;;;17.00;99.90;;;;;;5015007;28;20905;-71
2023/05/08 07:51:13;;;;;;;8.77;7.97;;;17.30;99.90;;;;;;5014997;28;20441;-69
2023/05/08 07:53:41;;;;;;;8.33;7.70;;;17.70;99.90;;;;;;5014538;28;20496;-71
2023/05/08 07:56:10;;;;;;;9.10;8.30;;;18.00;99.90;;;;;;5013985;28;20470;-71
2023/05/08 07:58:39;;;;;;;8.87;8.17;;;18.20;99.90;;;;;;5013891;28;20445;-70
2023/05/08 08:01:07;;;;;;;9.30;8.40;;;18.50;99.90;;;;;;5013399;28;20451;-71
2023/05/08 08:03:35;;;;;;;8.83;8.00;;;18.80;99.90;;;;;;5013665;28;20714;-72
2023/05/08 08:06:03;;;;;;;7.23;6.60;;;19.10;99.90;;;;;;5013123;28;20585;-72
2023/05/08 08:08:31;;;;;;;8.40;7.70;;;19.30;98.50;;;;;;5014040;28;20442;-70
2023/05/08 08:10:59;;;;;;;6.90;6.40;;;19.50;98.60;;;;;;5014273;28;20442;-71
2023/05/08 08:13:32;;;;;;;7.37;6.77;;;19.60;97.90;;;;;;5013045;28;20816;-69
2023/05/08 08:16:02;;;;;;;6.70;5.93;;;19.80;96.70;;;;;;5012283;28;20810;-70
2023/05/08 08:18:33;;;;;;;7.20;6.60;;;19.80;97.10;;;;;;5013646;28;20445;-72
2023/05/08 08:21:02;;;;;;;7.27;6.77;;;19.50;94.60;;;;;;5013671;28;20473;-69
2023/05/08 08:23:29;;;;;;;6.77;6.20;;;19.50;96.90;;;;;;5012508;28;20492;-71
2023/05/08 08:25:57;;;;;;;8.73;7.90;;;19.60;96.60;;;;;;5013357;28;20469;-71
2023/05/08 08:28:25;;;;;;;6.93;6.33;;;19.80;96.20;;;;;;5013511;28;20457;-70
2023/05/08 08:30:55;;;;;;;7.73;7.03;;;19.80;97.20;;;;;;5013529;28;20449;-70
2023/05/08 08:33:23;;;;;;;7.80;7.00;;;19.70;95.30;;;;;;5012692;28;20460;-71
2023/05/08 08:35:51;;;;;;;7.57;6.93;;;19.60;95.00;;;;;;5012550;28;20469;-72
2023/05/08 08:38:19;;;;;;;7.53;7.00;;;19.60;96.40;;;;;;5012138;28;20454;-72
2023/05/08 08:40:47;;;;;;;8.03;7.40;;;19.80;97.90;;;;;;5011695;28;20909;-71
2023/05/08 08:43:15;;;;;;;14.40;9.90;;;19.90;93.90;;;;;;5011322;28;20438;-70
2023/05/08 08:45:43;;;;;;;9.13;8.40;;;20.00;96.50;;;;;;5012503;28;20465;-71
2023/05/08 08:48:14;;;;;;;7.90;7.20;;;19.90;98.30;;;;;;5013216;28;20529;-69
2023/05/08 08:50:45;;;;;;;7.40;6.80;;;20.00;95.30;;;;;;5013358;28;20884;-70
2023/05/08 08:53:21;;;;;;;8.77;7.90;;;20.10;94.90;;;;;;5012072;28;20453;-71
2023/05/08 08:55:54;;;;;;;8.27;7.43;;;20.30;95.90;;;;;;5012930;28;20492;-71
2023/05/08 08:58:29;;;;;;;9.50;8.60;;;20.40;95.40;;;;;;5014907;28;20541;-70
2023/05/08 09:00:59;;;;;;;9.10;8.40;;;20.70;90.70;;;;;;5014089;28;20473;-70
2023/05/08 09:03:30;;;;;;;8.83;7.97;;;20.60;92.10;;;;;;5012830;28;20442;-70
2023/05/08 09:06:00;;;;;;;10.97;10.00;;;20.50;92.90;;;;;;5013064;28;20470;-70
2023/05/08 09:08:28;;;;;;;9.50;8.70;;;20.20;93.40;;;;;;5014053;28;20438;-70
2023/05/08 09:10:56;;;;;;;9.67;8.80;;;20.00;95.00;;;;;;5013466;28;20446;-71
2023/05/08 09:13:25;;;;;;;9.83;8.93;;;19.80;94.70;;;;;;5012380;28;20964;-69
2023/05/08 09:15:53;;;;;;;9.20;8.40;;;19.70;95.30;;;;;;5013112;28;20501;-71
2023/05/08 09:18:21;;;;;;;11.60;10.60;;;19.50;96.50;;;;;;5013120;28;20528;-69
2023/05/08 09:20:50;;;;;;;9.93;8.93;;;19.40;95.60;;;;;;5013043;28;20838;-69
2023/05/08 09:23:18;;;;;;;10.40;9.30;;;19.30;95.90;;;;;;5011185;28;20457;-69
2023/05/08 09:25:48;;;;;;;10.80;8.97;;;19.20;95.80;;;;;;5012580;28;20465;-69
2023/05/08 09:28:17;;;;;;;10.40;9.60;;;19.20;96.50;;;;;;5012977;28;20468;-70
2023/05/08 09:30:52;;;;;;;9.83;9.07;;;19.20;96.00;;;;;;5013249;28;20875;-69
2023/05/08 09:33:21;;;;;;;8.80;8.20;;;19.20;96.10;;;;;;5011533;28;20474;-70
2023/05/08 09:35:51;;;;;;;9.63;8.63;;;19.20;96.30;;;;;;5012382;28;20474;-69
2023/05/08 09:38:36;;;;;;;8.90;8.10;;;19.20;96.50;;;;;;5011718;28;20892;-69
2023/05/08 09:41:09;;;;;;;9.07;8.27;;;19.20;96.70;;;;;;5012666;28;20469;-70
2023/05/08 09:43:37;;;;;;;9.00;8.27;;;19.20;96.10;;;;;;5011163;28;20457;-69
2023/05/08 09:46:21;;;;;;;9.87;8.97;;;19.30;96.70;;;;;;5012166;28;20473;-69
2023/05/08 09:48:50;;;;;;;9.33;7.90;;;19.60;98.20;;;;;;5010878;28;20975;-69
2023/05/08 09:51:20;;;;;;;10.53;8.60;;;19.90;96.20;;;;;;5012093;28;20442;-70
2023/05/08 09:53:52;;;;;;;8.57;7.67;;;20.20;93.60;;;;;;5010829;28;20538;-68
2023/05/08 09:56:30;;;;;;;8.73;7.93;;;20.60;91.80;;;;;;5012196;28;20442;-69
2023/05/08 09:58:58;;;;;;;9.37;8.57;;;20.90;91.80;;;;;;5011996;28;20445;-70
2023/05/08 10:01:31;;;;;;;9.50;8.53;;;20.90;92.30;;;;;;5012071;28;20483;-70
2023/05/08 10:04:00;;;;;;;8.67;7.93;;;21.00;90.40;;;;;;5010681;28;20851;-69
2023/05/08 10:06:29;;;;;;;9.93;9.07;;;21.00;88.60;;;;;;5011734;28;20442;-69
2023/05/08 10:09:08;;;;;;;8.90;8.00;;;21.00;88.00;;;;;;5011784;28;20850;-69
2023/05/08 10:11:36;;;;;;;9.70;8.60;;;20.70;91.20;;;;;;5011634;28;20539;-69
2023/05/08 10:14:04;;;;;;;10.90;9.90;;;20.70;93.00;;;;;;5010752;28;20446;-69
2023/05/08 10:16:38;;;;;;;10.80;9.80;;;20.60;92.60;;;;;;5012028;28;20453;-69
2023/05/08 10:19:14;;;;;;;10.73;9.63;;;20.40;89.70;;;;;;5012240;28;20449;-68
2023/05/08 10:21:48;;;;;;;10.70;9.70;;;20.10;89.60;;;;;;5012077;28;20891;-69
2023/05/08 10:24:17;;;;;;;10.80;9.70;;;19.50;92.20;;;;;;5010832;28;20466;-70
2023/05/08 10:26:55;;;;;;;11.80;10.70;;;19.30;93.70;;;;;;5012499;28;20887;-70
2023/05/08 10:29:42;;;;;;;11.47;10.40;;;19.00;93.80;;;;;;5012533;28;20457;-70
2023/05/08 10:32:10;;;;;;;12.13;11.03;;;18.80;96.30;;;;;;5012039;28;20437;-69
2023/05/08 10:34:41;;;;;;;10.17;9.30;;;18.80;96.00;;;;;;5011324;28;20469;-69
2023/05/08 10:37:11;;;;;;;12.43;11.23;;;18.70;97.10;;;;;;5012721;28;20450;-69
2023/05/08 10:39:40;;;;;;;12.43;11.23;;;18.60;95.70;;;;;;5012182;28;20450;-70
2023/05/08 10:42:08;;;;;;;11.83;10.60;;;18.50;97.10;;;;;;5011717;28;20509;-71
2023/05/08 10:44:36;;;;;;;12.53;11.33;;;18.40;97.30;;;;;;5011065;28;20885;-72
2023/05/08 10:47:13;;;;;;;12.73;11.40;;;18.50;98.90;;;;;;5012095;28;20528;-70
2023/05/08 10:49:49;;;;;;;13.87;11.77;;;18.60;96.90;;;;;;5012241;28;20433;-70
2023/05/08 10:52:24;;;;;;;12.33;11.20;;;18.90;95.80;;;;;;5011555;28;20540;-69
2023/05/08 10:55:16;;;;;;;12.03;10.83;;;19.10;97.70;;;;;;5012545;28;20457;-70
2023/05/08 10:58:02;;;;;;;11.37;10.30;;;19.40;94.30;;;;;;5012389;28;20476;-70
2023/05/08 11:00:32;;;;;;;12.13;11.03;;;19.40;94.60;;;;;;5012636;28;20883;-69
2023/05/08 11:03:08;;;;;;;13.23;11.93;;;19.30;95.60;;;;;;5012381;28;20531;-70
2023/05/08 11:05:51;;;;;;;13.77;12.50;;;19.30;93.60;;;;;;5015014;28;20458;-71
2023/05/08 11:08:23;;;;;;;13.97;12.50;;;19.50;98.10;;;;;;5014795;28;20528;-69
2023/05/08 11:11:00;;;;;;;12.00;11.00;;;19.60;95.10;;;;;;5014739;28;20441;-69
2023/05/08 11:13:32;;;;;;;12.50;11.40;;;19.90;97.30;;;;;;5013821;28;20548;-70
2023/05/08 11:16:00;;;;;;;11.90;10.80;;;20.20;95.40;;;;;;5014625;28;20468;-68
2023/05/08 11:18:29;;;;;;;11.60;10.53;;;20.60;92.40;;;;;;5014758;28;20446;-69
2023/05/08 11:21:19;;;;;;;10.70;9.80;;;20.80;91.50;;;;;;5015227;28;20829;-70
2023/05/08 11:23:56;;;;;;;11.87;10.87;;;21.20;91.40;;;;;;5014786;28;20480;-69
2023/05/08 11:26:39;;;;;;;10.60;9.70;;;21.40;82.90;;;;;;5016330;28;20442;-70
2023/05/08 11:29:17;;;;;;;11.80;10.60;;;21.50;83.60;;;;;;5015997;28;20450;-70
2023/05/08 11:31:54;;;;;;;10.90;9.90;;;22.10;83.30;;;;;;5016114;28;21114;-71
2023/05/08 11:34:46;;;;;;;10.93;10.03;;;22.30;77.90;;;;;;5014970;28;20887;-69
2023/05/08 11:37:18;;;;;;;9.87;9.07;;;22.30;74.80;;;;;;5016078;28;20825;-69
2023/05/08 11:39:48;;;;;;;10.50;9.60;;;22.50;82.50;;;;;;5016395;28;20505;-69
2023/05/08 11:42:35;;;;;;;9.00;8.23;;;23.00;80.00;;;;;;5016255;28;20477;-70
2023/05/08 11:45:05;;;;;;;10.00;9.20;;;23.50;77.10;;;;;;5016600;28;20473;-68
2023/05/08 11:47:38;;;;;;;8.90;8.10;;;23.90;77.50;;;;;;5018741;28;20469;-70
2023/05/08 11:50:08;;;;;;;9.83;8.93;;;24.20;75.30;;;;;;5017258;28;20454;-67
2023/05/08 11:52:38;;;;;;;8.40;7.80;;;24.60;72.60;;;;;;5019058;28;20434;-69
2023/05/08 11:55:09;;;;;;;8.77;8.17;;;25.10;66.90;;;;;;5020806;28;20458;-69
2023/05/08 11:57:38;;;;;;;8.93;8.23;;;26.20;67.40;;;;;;5020812;28;20442;-69
2023/05/08 12:00:07;;;;;;;8.30;7.70;;;26.40;67.40;;;;;;5021619;28;21144;-69
2023/05/08 12:02:36;;;;;;;8.43;7.73;;;26.50;63.90;;;;;;5018910;28;21063;-68
2023/05/08 12:05:05;;;;;;;9.03;8.27;;;26.10;64.60;;;;;;5019174;28;20470;-70
2023/05/08 12:07:33;;;;;;;9.20;8.50;;;26.00;65.00;;;;;;5017997;28;20450;-69
2023/05/08 12:10:02;;;;;;;10.70;9.90;;;26.80;62.70;;;;;;5009484;28;20509;-69
2023/05/08 12:12:49;;;;;;;9.93;9.23;;;27.30;60.30;;;;;;5010892;28;20441;-70
2023/05/08 12:15:17;;;;;;;10.13;9.33;;;26.80;60.00;;;;;;5014292;28;20462;-69
2023/05/08 12:17:45;;;;;;;9.53;8.67;;;26.20;61.40;;;;;;5013317;28;20445;-69
2023/05/08 12:20:15;;;;;;;9.73;9.03;;;25.40;63.60;;;;;;5010819;28;20977;-69
2023/05/08 12:22:51;;;;;;;11.37;10.37;;;24.90;64.90;;;;;;5009417;28;20476;-69
2023/05/08 12:25:19;;;;;;;11.43;10.43;;;24.40;68.40;;;;;;5015203;28;20468;-71
2023/05/08 12:27:47;;;;;;;9.93;9.13;;;24.00;66.90;;;;;;5015295;28;20522;-71
2023/05/08 12:30:17;;;;;;;9.63;8.90;;;24.30;69.30;;;;;;5014793;28;20450;-71
2023/05/08 12:32:48;;;;;;;10.10;9.40;;;24.80;67.30;;;;;;5016987;28;20413;-71
2023/05/08 12:35:16;;;;;;;9.60;8.80;;;25.20;61.50;;;;;;5017870;28;20501;-71
2023/05/08 12:37:45;;;;;;;10.10;9.33;;;25.40;66.50;;;;;;5015720;28;20442;-71
2023/05/08 12:40:25;;;;;;;9.67;8.87;;;25.30;65.10;;;;;;5013747;28;20457;-71
2023/05/08 12:42:54;;;;;;;10.80;9.80;;;25.00;65.30;;;;;;4998969;28;20478;-71
2023/05/08 12:45:25;;;;;;;12.13;11.23;;;24.40;64.80;;;;;;4998562;28;20833;-70
2023/05/08 12:47:55;;;;;;;13.50;12.33;;;23.80;69.50;;;;;;4995205;28;20443;-71
2023/05/08 12:50:24;;;;;;;13.90;12.80;;;23.30;70.50;;;;;;4995659;28;20546;-70
2023/05/08 12:52:52;;;;;;;13.57;12.50;;;22.60;72.30;;;;;;4993839;28;21140;-70